Flight Track Log - Related Links

Times and Time Zones

All times are in EDT time to prevent confusion due to time zone crossing. See the PDT4373 flight status page for this flight to view local times or setup timezone preferences in your user account.

Time Position Orientation Groundspeed Altitude Reporting Facility
EDT Latitude Longitude Course Direction KTS MPH feet Rate Location/Type
Fri 11:42:00 AM 41.9591 -75.8981 180° South  Level Estimated
Fri 11:43:00 AM 41.8968 -75.8779 154° Southeast  Level Estimated
Fri 11:44:00 AM 41.8345 -75.8577 160° South  Level Estimated
Fri 11:45:00 AM 41.7721 -75.8375 159° South  Level Estimated
Fri 11:46:00 AM 41.7083 -75.8287 174° South  Level FlightAware Approximate
Fri 11:47:00 AM 41.6460 -75.8082 153° Southeast  Level Estimated
Fri 11:48:00 AM 41.5838 -75.7877 161° South  Level Estimated
Fri 11:49:00 AM 41.5215 -75.7671 166° South  Level FlightAware Approximate
Fri 11:50:00 AM 41.4593 -75.7466 166° South  Level FlightAware Approximate
Fri 11:51:00 AM 41.3969 -75.7263 162° South  Level Estimated
Fri 11:52:00 AM 41.3356 -75.7014 163° South  Level FlightAware Approximate
Fri 11:53:00 AM 41.2742 -75.6767 163° South  Level FlightAware Approximate
Fri 11:54:00 AM 41.2128 -75.6520 163° South  Level FlightAware Approximate
Fri 11:55:00 AM 41.1504 -75.6325 159° South  Level Estimated
Fri 11:56:00 AM 41.0880 -75.6130 163° South  Level Estimated
Fri 11:57:00 AM 41.0271 -75.5861 162° South  Level FlightAware Approximate
Fri 11:58:00 AM 40.9663 -75.5593 162° South  Level FlightAware Approximate
Fri 11:59:00 AM 40.9054 -75.5326 162° South  Level FlightAware Approximate
Fri 12:00:00 PM 40.8427 -75.5146 190° South  Level Estimated
Fri 12:01:00 PM 40.7786 -75.5119 178° South  Level FlightAware Approximate
Fri 12:02:00 PM 40.7145 -75.5091 178° South  Level FlightAware Approximate
Fri 12:03:00 PM 40.6522 -75.4891 187° South  Level Estimated
Fri 12:04:00 PM 40.5883 -75.4961 185° South  Level FlightAware Approximate
Fri 12:05:00 PM 40.5264 -75.4738 190° South  Level Estimated
Fri 12:05:03 PM 40.5833 -75.5500 143° Southeast 256 295 5,000  Level Philadelphia TRACON
Fri 12:05:27 PM 40.5500 -75.5500 180° South 247 284 5,000  Level Philadelphia TRACON
Fri 12:06:00 PM 40.4565 -75.4931 192° South  Level FlightAware Approximate
Fri 12:06:27 PM 40.4833 -75.5500 180° South 240 276 5,000  Level Philadelphia TRACON
Fri 12:07:00 PM 40.3887 -75.4636 180° South  Level Estimated
Fri 12:07:27 PM 40.4333 -75.5000 143° Southeast 256 295 5,000  Level Philadelphia TRACON
Fri 12:08:00 PM 40.3208 -75.4342 143° Southeast  Level Estimated
Fri 12:08:27 PM 40.3833 -75.4333 135° Southeast 249 287 4,900  Level Philadelphia TRACON
Fri 12:09:00 PM 40.2530 -75.4047 143° Southeast  Level Estimated
Fri 12:09:27 PM 40.3167 -75.3833 150° Southeast 251 289 4,100  Level Philadelphia TRACON
Fri 12:10:00 PM 40.1851 -75.3754 143° Southeast  Level Estimated
Fri 12:10:27 PM 40.2667 -75.3167 134° Southeast 240 276 4,000  Level Philadelphia TRACON
Fri 12:11:27 PM 40.2167 -75.2833 153° Southeast 227 261 4,000  Level Philadelphia TRACON
Fri 12:12:27 PM 40.1667 -75.2500 153° Southeast 222 255 4,000  Level Philadelphia TRACON
Fri 12:13:27 PM 40.1000 -75.2333 169° South 215 247 4,000  Level Philadelphia TRACON
Fri 12:14:28 PM 40.0500 -75.2000 153° Southeast 216 249 4,000  Level Philadelphia TRACON
Fri 12:15:27 PM 39.9833 -75.1833 169° South 214 246 4,000  Level Philadelphia TRACON
Fri 12:16:28 PM 39.9333 -75.1667 166° South 213 245 4,000 -149 Level Philadelphia TRACON
Fri 12:17:28 PM 39.8833 -75.1500 166° South 213 245 3,700 -900 Descending Philadelphia TRACON
Fri 12:18:28 PM 39.8167 -75.1333 169° South 208 239 2,200 -1,000 Descending Philadelphia TRACON
Fri 12:19:28 PM 39.8000 -75.1833 247° West 158 182 1,700 -600 Descending Philadelphia TRACON
Fri 12:20:28 PM 39.8333 -75.2000 339° North 132 152 1,000 -700 Descending Philadelphia TRACON
Fri 12:21:28 PM 39.8500 -75.2167 322° Northwest 112 129 300 -700 Descending Philadelphia TRACON

Login

Don't have an account? Register now (free) for customized features, flight alerts, and more!